Time;durP1;ratioP1;P1;durP2;ratioP2;P2;SDS_P1;SDS_P2;PMS_P1;PMS_P2;Temp;Humidity;BMP_temperature;BMP_pressure;BME280_temperature;BME280_humidity;BME280_pressure;Samples;Min_cycle;Max_cycle;Signal;HPM_P1;HPM_P2
2022/01/17 00:00:49;;;;;;;22.58;11.40;;;;;;;;;;6244368;28;20041;-66
2022/01/17 00:03:52;;;;;;;27.10;12.98;;;;;;;;;;6244060;28;20049;-66
2022/01/17 00:06:55;;;;;;;25.75;12.60;;;;;;;;;;6244373;28;20049;-66
2022/01/17 00:09:58;;;;;;;26.20;13.05;;;;;;;;;;6244398;28;20069;-66
2022/01/17 00:13:03;;;;;;;24.17;11.85;;;;;;;;;;6243570;28;20044;-65
2022/01/17 00:16:10;;;;;;;28.17;12.93;;;;;;;;;;6226427;28;20053;-66
2022/01/17 00:19:35;;;;;;;26.02;13.00;;;;;;;;;;6243845;28;20056;-66
2022/01/17 00:22:40;;;;;;;27.98;13.43;;;;;;;;;;6243523;28;20115;-66
2022/01/17 00:25:43;;;;;;;26.05;12.82;;;;;;;;;;6225585;28;20055;-66
2022/01/17 00:28:47;;;;;;;25.48;12.25;;;;;;;;;;6244097;28;20076;-66
2022/01/17 00:31:50;;;;;;;39.55;21.70;;;;;;;;;;6243621;28;20045;-66
2022/01/17 00:34:53;;;;;;;27.83;14.45;;;;;;;;;;6224272;28;20080;-67
2022/01/17 00:37:58;;;;;;;31.92;14.65;;;;;;;;;;6242936;28;20073;-66
2022/01/17 00:41:01;;;;;;;28.00;13.45;;;;;;;;;;6243439;28;20079;-66
2022/01/17 00:44:06;;;;;;;27.00;13.52;;;;;;;;;;6225253;28;20064;-66
2022/01/17 00:47:09;;;;;;;30.95;14.02;;;;;;;;;;6225387;28;20064;-66
2022/01/17 00:50:14;;;;;;;25.53;12.90;;;;;;;;;;6242868;28;20049;-66
2022/01/17 00:53:17;;;;;;;25.00;12.60;;;;;;;;;;6225167;28;20045;-66
2022/01/17 00:56:21;;;;;;;24.85;12.90;;;;;;;;;;6242750;28;20606;-66
2022/01/17 00:59:29;;;;;;;25.35;12.73;;;;;;;;;;6225748;28;20483;-66
2022/01/17 01:02:32;;;;;;;28.00;13.52;;;;;;;;;;6241580;28;20041;-66
2022/01/17 01:05:38;;;;;;;27.55;12.88;;;;;;;;;;6242937;28;20068;-66
2022/01/17 01:08:41;;;;;;;22.10;11.48;;;;;;;;;;6243001;28;20433;-66
2022/01/17 01:11:43;;;;;;;24.05;12.45;;;;;;;;;;6225349;28;20071;-66
2022/01/17 01:14:48;;;;;;;28.30;12.77;;;;;;;;;;6225156;28;20038;-66
2022/01/17 01:17:53;;;;;;;23.67;13.18;;;;;;;;;;6242294;28;20072;-66
2022/01/17 01:27:54;;;;;;;22.58;10.77;;;;;;;;;;6315759;28;20068;-65
2022/01/17 01:30:59;;;;;;;21.88;10.90;;;;;;;;;;6317119;28;20482;-65
2022/01/17 01:34:05;;;;;;;20.58;11.05;;;;;;;;;;6314917;28;20068;-65
2022/01/17 01:37:07;;;;;;;24.70;10.50;;;;;;;;;;6316841;28;20369;-66
2022/01/17 01:40:13;;;;;;;22.92;11.50;;;;;;;;;;6316812;28;20060;-65
2022/01/17 01:43:18;;;;;;;19.75;10.27;;;;;;;;;;6314918;28;20505;-66
2022/01/17 01:46:23;;;;;;;22.40;10.30;;;;;;;;;;6315004;28;20121;-65
2022/01/17 01:49:26;;;;;;;20.88;10.80;;;;;;;;;;6315294;28;20510;-65
2022/01/17 01:52:29;;;;;;;20.38;10.23;;;;;;;;;;6316392;28;20070;-65
2022/01/17 01:55:33;;;;;;;21.23;10.82;;;;;;;;;;6314029;28;20048;-65
2022/01/17 01:58:36;;;;;;;20.38;10.50;;;;;;;;;;6315160;28;20067;-65
2022/01/17 02:01:39;;;;;;;19.45;10.05;;;;;;;;;;6315021;28;20056;-64
2022/01/17 02:04:43;;;;;;;20.08;9.55;;;;;;;;;;6313926;28;20068;-64
2022/01/17 02:07:47;;;;;;;19.40;9.63;;;;;;;;;;6314573;28;20052;-65
2022/01/17 02:10:51;;;;;;;20.05;9.63;;;;;;;;;;6314773;28;20055;-65
2022/01/17 02:13:56;;;;;;;17.27;8.85;;;;;;;;;;6314457;28;20501;-64
2022/01/17 02:17:02;;;;;;;16.08;8.65;;;;;;;;;;6313866;28;20067;-64
2022/01/17 02:20:09;;;;;;;16.80;8.60;;;;;;;;;;6315871;28;20044;-64
2022/01/17 02:23:14;;;;;;;16.27;8.60;;;;;;;;;;6313466;28;20076;-64
2022/01/17 02:26:18;;;;;;;15.50;8.20;;;;;;;;;;6311944;28;20055;-65
2022/01/17 02:29:21;;;;;;;14.32;7.93;;;;;;;;;;6312241;28;20048;-64
2022/01/17 02:32:24;;;;;;;16.20;8.23;;;;;;;;;;6312912;28;20055;-65
2022/01/17 02:35:28;;;;;;;19.10;8.70;;;;;;;;;;6298871;28;20079;-64
2022/01/17 02:38:31;;;;;;;15.55;8.25;;;;;;;;;;6294740;28;20178;-63
2022/01/17 02:41:35;;;;;;;16.02;8.57;;;;;;;;;;6297088;28;20510;-64
2022/01/17 02:44:44;;;;;;;15.73;8.10;;;;;;;;;;6297133;28;20450;-64
2022/01/17 02:47:47;;;;;;;14.43;7.80;;;;;;;;;;6295830;28;20072;-64
2022/01/17 02:50:54;;;;;;;16.92;8.23;;;;;;;;;;6295768;28;20044;-64
2022/01/17 02:53:57;;;;;;;16.17;8.63;;;;;;;;;;6295607;28;20438;-64
2022/01/17 02:57:03;;;;;;;15.68;7.65;;;;;;;;;;6295480;28;20049;-64
2022/01/17 03:00:10;;;;;;;15.25;7.95;;;;;;;;;;6293985;28;20068;-64
2022/01/17 03:03:13;;;;;;;13.30;7.10;;;;;;;;;;6295915;28;20123;-64
2022/01/17 03:06:20;;;;;;;15.50;7.43;;;;;;;;;;6295362;28;20059;-64
2022/01/17 03:09:24;;;;;;;17.50;7.97;;;;;;;;;;6295127;28;20048;-64
2022/01/17 03:12:27;;;;;;;15.48;8.55;;;;;;;;;;6296007;28;20086;-64
2022/01/17 03:15:30;;;;;;;15.98;7.65;;;;;;;;;;6296209;28;20041;-64
2022/01/17 03:18:39;;;;;;;14.98;8.32;;;;;;;;;;6294642;28;20072;-65
2022/01/17 03:21:43;;;;;;;13.10;7.55;;;;;;;;;;6294598;28;20063;-65
2022/01/17 03:24:48;;;;;;;13.93;7.30;;;;;;;;;;6294581;28;20055;-65
2022/01/17 03:27:51;;;;;;;13.90;7.03;;;;;;;;;;6296233;28;20410;-65
2022/01/17 03:30:56;;;;;;;16.25;7.72;;;;;;;;;;6294575;28;20072;-64
2022/01/17 03:33:59;;;;;;;13.52;7.18;;;;;;;;;;6294359;28;20053;-63
2022/01/17 03:37:03;;;;;;;15.40;7.20;;;;;;;;;;6295716;28;20499;-64
2022/01/17 03:40:07;;;;;;;13.93;6.72;;;;;;;;;;6295431;28;20051;-64
2022/01/17 03:43:10;;;;;;;15.05;7.47;;;;;;;;;;6294511;28;20072;-64
2022/01/17 03:46:15;;;;;;;13.80;7.17;;;;;;;;;;6293447;28;20056;-64
2022/01/17 03:49:18;;;;;;;11.55;5.32;;;;;;;;;;6295686;28;20072;-64
2022/01/17 03:52:22;;;;;;;13.32;7.40;;;;;;;;;;6293893;28;20056;-64
2022/01/17 03:55:27;;;;;;;13.10;7.33;;;;;;;;;;6294051;28;20068;-64
2022/01/17 03:58:31;;;;;;;13.52;6.53;;;;;;;;;;6295857;28;20283;-64
2022/01/17 04:01:34;;;;;;;15.15;7.55;;;;;;;;;;6294413;28;20068;-65
2022/01/17 04:04:37;;;;;;;13.35;7.13;;;;;;;;;;6293025;28;20053;-63
2022/01/17 04:07:41;;;;;;;13.43;7.05;;;;;;;;;;6293679;28;20071;-64
2022/01/17 04:10:44;;;;;;;13.65;6.82;;;;;;;;;;6294851;28;20514;-65
2022/01/17 04:13:50;;;;;;;13.88;6.85;;;;;;;;;;6292296;28;20064;-65
2022/01/17 04:16:53;;;;;;;14.07;7.20;;;;;;;;;;6294728;28;20510;-64
2022/01/17 04:20:03;;;;;;;14.55;7.25;;;;;;;;;;6293468;28;20065;-64
2022/01/17 04:23:08;;;;;;;14.15;6.95;;;;;;;;;;6292224;28;20067;-64
2022/01/17 04:26:11;;;;;;;15.48;7.90;;;;;;;;;;6292823;28;20072;-65
2022/01/17 04:29:14;;;;;;;14.40;7.32;;;;;;;;;;6294486;28;20365;-64
2022/01/17 04:32:17;;;;;;;17.77;8.43;;;;;;;;;;6293055;28;20129;-64
2022/01/17 04:35:21;;;;;;;14.15;8.00;;;;;;;;;;6291835;28;20125;-64
2022/01/17 04:38:26;;;;;;;15.40;8.27;;;;;;;;;;6294310;28;20459;-63
2022/01/17 04:41:37;;;;;;;15.00;7.95;;;;;;;;;;6294966;28;20108;-64
2022/01/17 04:48:01;;;;;;;16.70;8.60;;;;;;;;;;6293169;28;20050;-65
2022/01/17 04:51:04;;;;;;;15.70;7.82;;;;;;;;;;6294145;28;20102;-65
2022/01/17 04:54:29;;;;;;;15.13;8.02;;;;;;;;;;6292701;28;20055;-65
2022/01/17 04:57:32;;;;;;;15.45;8.38;;;;;;;;;;6291297;28;20123;-65
2022/01/17 05:00:35;;;;;;;14.95;7.28;;;;;;;;;;6294020;28;20056;-64
2022/01/17 05:03:38;;;;;;;14.05;7.32;;;;;;;;;;6293774;28;20569;-65
2022/01/17 05:06:41;;;;;;;14.70;7.60;;;;;;;;;;6292262;28;20052;-64
2022/01/17 05:09:48;;;;;;;17.85;7.97;;;;;;;;;;6292657;28;20071;-64
2022/01/17 05:12:52;;;;;;;15.30;8.02;;;;;;;;;;6292482;28;20041;-63
2022/01/17 05:16:06;;;;;;;15.05;7.57;;;;;;;;;;6293996;28;20072;-63
2022/01/17 05:22:33;;;;;;;13.82;7.00;;;;;;;;;;6292706;28;20541;-63
2022/01/17 05:25:38;;;;;;;13.27;7.28;;;;;;;;;;6293543;28;20383;-63
2022/01/17 05:28:43;;;;;;;15.32;7.03;;;;;;;;;;6293591;28;20102;-65
2022/01/17 05:31:46;;;;;;;14.45;6.75;;;;;;;;;;6290824;28;20051;-64
2022/01/17 05:34:49;;;;;;;13.88;7.57;;;;;;;;;;6292148;28;20113;-65
2022/01/17 05:37:52;;;;;;;15.48;7.05;;;;;;;;;;6293492;28;20450;-65
2022/01/17 05:40:57;;;;;;;14.57;7.18;;;;;;;;;;6291313;28;20447;-64
2022/01/17 05:44:02;;;;;;;12.38;6.40;;;;;;;;;;6291636;28;20040;-64
2022/01/17 05:47:06;;;;;;;12.98;6.47;;;;;;;;;;6293382;28;20499;-64
2022/01/17 05:50:09;;;;;;;12.07;5.90;;;;;;;;;;6291871;28;20052;-66
2022/01/17 05:53:15;;;;;;;12.48;6.18;;;;;;;;;;6290666;28;20064;-65
2022/01/17 05:56:19;;;;;;;13.65;6.65;;;;;;;;;;6291903;28;20040;-63
2022/01/17 05:59:22;;;;;;;13.38;6.13;;;;;;;;;;6293765;28;20123;-64
2022/01/17 06:02:25;;;;;;;12.93;6.47;;;;;;;;;;6290761;28;20067;-64
2022/01/17 06:05:28;;;;;;;10.57;5.97;;;;;;;;;;6291812;28;20064;-65
2022/01/17 06:08:34;;;;;;;12.40;6.30;;;;;;;;;;6292246;28;20516;-65
2022/01/17 06:11:41;;;;;;;13.55;6.03;;;;;;;;;;6297434;28;20483;-64
2022/01/17 06:14:44;;;;;;;11.98;5.72;;;;;;;;;;6295201;28;20089;-66
2022/01/17 06:17:47;;;;;;;10.40;5.78;;;;;;;;;;6295976;28;20485;-63
2022/01/17 06:20:50;;;;;;;11.55;5.68;;;;;;;;;;6297524;28;20044;-64
2022/01/17 06:23:53;;;;;;;11.23;5.93;;;;;;;;;;6295935;28;20500;-65
2022/01/17 06:26:58;;;;;;;11.57;5.40;;;;;;;;;;6297115;28;20514;-64
2022/01/17 06:30:01;;;;;;;8.70;5.35;;;;;;;;;;6296033;28;20079;-64
2022/01/17 06:33:04;;;;;;;9.85;5.00;;;;;;;;;;6297022;28;20044;-63
2022/01/17 06:36:07;;;;;;;9.52;4.63;;;;;;;;;;6294932;28;20044;-64
2022/01/17 06:39:12;;;;;;;8.67;4.77;;;;;;;;;;6297058;28;20051;-64
2022/01/17 06:42:16;;;;;;;8.07;4.93;;;;;;;;;;6295563;28;20610;-63
2022/01/17 06:45:23;;;;;;;10.00;5.35;;;;;;;;;;6294315;28;20127;-64
2022/01/17 06:48:28;;;;;;;9.43;5.35;;;;;;;;;;6297139;28;20075;-65
2022/01/17 06:51:31;;;;;;;9.32;4.50;;;;;;;;;;6296761;28;20055;-65
2022/01/17 06:54:34;;;;;;;8.95;5.03;;;;;;;;;;6294837;28;20068;-65
2022/01/17 06:57:38;;;;;;;12.10;5.70;;;;;;;;;;6294631;28;20306;-65
2022/01/17 07:00:41;;;;;;;10.02;5.32;;;;;;;;;;6295310;28;20055;-65
2022/01/17 07:03:44;;;;;;;11.55;5.47;;;;;;;;;;6295041;28;20552;-65
2022/01/17 07:06:49;;;;;;;13.37;6.67;;;;;;;;;;6295951;28;20052;-64
2022/01/17 07:09:52;;;;;;;11.95;6.57;;;;;;;;;;6296253;28;20044;-64
2022/01/17 07:12:59;;;;;;;11.15;5.80;;;;;;;;;;6294992;28;20071;-64
2022/01/17 07:16:02;;;;;;;11.18;5.82;;;;;;;;;;6295155;28;20075;-64
2022/01/17 07:19:05;;;;;;;11.65;5.53;;;;;;;;;;6295733;28;20095;-64
2022/01/17 07:22:10;;;;;;;10.57;5.55;;;;;;;;;;6294430;28;20067;-64
2022/01/17 07:25:14;;;;;;;16.05;5.70;;;;;;;;;;6295637;28;20068;-65
2022/01/17 07:28:18;;;;;;;14.23;6.20;;;;;;;;;;6293381;28;20160;-64
2022/01/17 07:31:21;;;;;;;13.27;6.45;;;;;;;;;;6295754;28;20048;-64
2022/01/17 07:34:24;;;;;;;9.40;5.18;;;;;;;;;;6295712;28;20098;-63
2022/01/17 07:37:27;;;;;;;7.38;4.90;;;;;;;;;;6293356;28;20041;-65
2022/01/17 07:40:32;;;;;;;9.90;5.20;;;;;;;;;;6294045;28;20051;-64
2022/01/17 07:43:38;;;;;;;9.05;5.45;;;;;;;;;;6295883;28;20057;-64
2022/01/17 07:46:50;;;;;;;9.30;5.10;;;;;;;;;;6295011;28;20052;-63
2022/01/17 07:49:53;;;;;;;10.18;4.97;;;;;;;;;;6292981;28;20076;-64
2022/01/17 07:53:10;;;;;;;;;;;;;;;;;;6295762;28;20075;-63
2022/01/17 07:56:15;;;;;;;8.63;4.82;;;;;;;;;;6295622;28;19948;-63
2022/01/17 07:59:22;;;;;;;8.60;5.20;;;;;;;;;;6294332;28;20041;-64
2022/01/17 08:02:25;;;;;;;10.25;5.25;;;;;;;;;;6294451;28;20317;-65
2022/01/17 08:05:28;;;;;;;10.32;5.20;;;;;;;;;;6294982;28;20044;-65
2022/01/17 08:08:31;;;;;;;8.93;5.22;;;;;;;;;;6294534;28;20079;-64
2022/01/17 08:11:34;;;;;;;11.02;5.10;;;;;;;;;;6293703;28;20040;-65
2022/01/17 08:14:40;;;;;;;8.85;4.85;;;;;;;;;;6294688;28;20075;-64
2022/01/17 08:17:43;;;;;;;8.75;5.40;;;;;;;;;;6294583;28;20426;-64
2022/01/17 08:20:46;;;;;;;8.68;5.07;;;;;;;;;;6291853;28;20084;-64
2022/01/17 08:23:48;;;;;;;9.63;5.30;;;;;;;;;;6294032;28;20059;-64
2022/01/17 08:26:51;;;;;;;9.15;5.00;;;;;;;;;;6293030;28;20073;-64
2022/01/17 08:29:57;;;;;;;9.20;5.20;;;;;;;;;;6293984;28;20048;-65
2022/01/17 08:33:19;;;;;;;7.65;4.55;;;;;;;;;;6291957;28;20068;-64
2022/01/17 08:36:22;;;;;;;11.05;5.35;;;;;;;;;;6294910;28;20088;-65
2022/01/17 08:39:25;;;;;;;7.90;3.85;;;;;;;;;;6294257;28;20083;-64
2022/01/17 08:42:28;;;;;;;7.00;4.22;;;;;;;;;;6291720;28;20441;-65
2022/01/17 08:45:33;;;;;;;9.35;4.63;;;;;;;;;;6293601;28;20138;-65
2022/01/17 08:48:44;;;;;;;8.95;4.90;;;;;;;;;;6292508;28;20044;-65
2022/01/17 08:51:48;;;;;;;9.57;4.68;;;;;;;;;;6293551;28;20072;-65
2022/01/17 08:54:50;;;;;;;8.70;5.07;;;;;;;;;;6291305;28;20052;-65
2022/01/17 08:57:53;;;;;;;9.25;4.90;;;;;;;;;;6293594;28;20065;-64
2022/01/17 09:00:58;;;;;;;9.32;4.88;;;;;;;;;;6293790;28;20053;-65
2022/01/17 09:04:02;;;;;;;9.23;5.00;;;;;;;;;;6291448;28;20560;-63
2022/01/17 09:07:04;;;;;;;9.00;5.38;;;;;;;;;;6291832;28;20324;-65
2022/01/17 09:10:08;;;;;;;13.80;7.30;;;;;;;;;;6293459;28;20486;-64
2022/01/17 09:13:16;;;;;;;8.70;5.40;;;;;;;;;;6293028;28;20045;-65
2022/01/17 09:16:23;;;;;;;9.60;5.10;;;;;;;;;;6292136;28;20056;-65
2022/01/17 09:19:27;;;;;;;10.50;5.70;;;;;;;;;;6293213;28;20182;-65
2022/01/17 09:22:30;;;;;;;11.95;5.28;;;;;;;;;;6291094;28;20045;-65
2022/01/17 09:25:33;;;;;;;9.38;5.45;;;;;;;;;;6292122;28;20048;-64
2022/01/17 09:28:38;;;;;;;;;;;;;;;;;;6292112;28;20071;-67
2022/01/17 09:31:43;;;;;;;11.45;5.60;;;;;;;;;;6293073;28;19965;-67
2022/01/17 09:34:46;;;;;;;11.50;5.93;;;;;;;;;;6291500;28;20068;-66
2022/01/17 09:37:49;;;;;;;9.55;5.40;;;;;;;;;;6291678;28;20048;-65
2022/01/17 09:40:54;;;;;;;10.48;5.15;;;;;;;;;;6293264;28;20065;-66
2022/01/17 09:44:18;;;;;;;11.70;6.03;;;;;;;;;;6294629;28;20474;-66
2022/01/17 09:47:22;;;;;;;9.73;6.30;;;;;;;;;;6296785;28;20130;-67
2022/01/17 09:50:34;;;;;;;10.00;5.63;;;;;;;;;;6296215;28;20475;-66
2022/01/17 09:53:39;;;;;;;10.20;6.25;;;;;;;;;;6297728;28;20505;-66
2022/01/17 09:56:43;;;;;;;10.03;6.23;;;;;;;;;;6297152;28;20040;-66
2022/01/17 09:59:46;;;;;;;12.80;6.97;;;;;;;;;;6294662;28;20072;-66
2022/01/17 10:02:54;;;;;;;11.98;5.85;;;;;;;;;;6296347;28;20040;-68
2022/01/17 10:05:57;;;;;;;12.60;6.55;;;;;;;;;;6295839;28;20080;-66
2022/01/17 10:09:09;;;;;;;11.52;5.93;;;;;;;;;;6294946;28;20048;-66
2022/01/17 10:12:15;;;;;;;11.90;6.20;;;;;;;;;;6295498;28;20044;-66
2022/01/17 10:15:33;;;;;;;13.50;6.50;;;;;;;;;;6297279;28;20419;-67
2022/01/17 10:18:41;;;;;;;13.90;7.13;;;;;;;;;;6297179;28;20048;-66
2022/01/17 10:21:47;;;;;;;;;;;;;;;;;;6296572;28;20404;-66
2022/01/17 10:25:01;;;;;;;10.23;6.32;;;;;;;;;;6296741;28;19932;-66
2022/01/17 10:28:40;;;;;;;12.27;6.88;;;;;;;;;;6296859;28;20048;-66
2022/01/17 10:35:13;;;;;;;24.48;8.07;;;;;;;;;;6295808;28;20503;-65
2022/01/17 10:38:20;;;;;;;15.80;8.60;;;;;;;;;;6295855;28;20067;-65
2022/01/17 10:41:25;;;;;;;19.77;9.75;;;;;;;;;;6295011;28;20054;-65
2022/01/17 10:44:28;;;;;;;;;;;;;;;;;;6295861;28;20076;-64
2022/01/17 10:47:32;;;;;;;15.45;7.93;;;;;;;;;;6295102;28;20421;-65
2022/01/17 10:50:38;;;;;;;12.75;7.22;;;;;;;;;;6296278;28;20057;-66
2022/01/17 10:53:41;;;;;;;15.40;7.45;;;;;;;;;;6296318;28;20051;-66
2022/01/17 10:56:49;;;;;;;12.02;6.50;;;;;;;;;;6294523;28;20075;-65
2022/01/17 10:59:53;;;;;;;13.35;7.07;;;;;;;;;;6293989;28;20045;-64
2022/01/17 11:02:57;;;;;;;11.38;6.60;;;;;;;;;;6295971;28;20072;-65
2022/01/17 11:06:05;;;;;;;12.27;6.15;;;;;;;;;;6294695;28;20509;-65
2022/01/17 11:09:08;;;;;;;11.95;6.53;;;;;;;;;;6294735;28;20048;-66
2022/01/17 11:12:14;;;;;;;;;;;;;;;;;;6295035;28;20049;-65
2022/01/17 11:15:17;;;;;;;13.07;5.18;;;;;;;;;;6294654;28;20113;-65
2022/01/17 11:18:23;;;;;;;10.32;5.47;;;;;;;;;;6293372;28;20070;-65
2022/01/17 11:21:28;;;;;;;8.57;5.10;;;;;;;;;;6294979;28;20487;-65
2022/01/17 11:24:31;;;;;;;10.20;5.43;;;;;;;;;;6295599;28;20056;-65
2022/01/17 11:27:34;;;;;;;10.82;4.82;;;;;;;;;;6295451;28;20071;-66
2022/01/17 11:30:38;;;;;;;7.35;4.45;;;;;;;;;;6293234;28;20048;-65
2022/01/17 11:33:41;;;;;;;9.82;4.60;;;;;;;;;;6295444;28;20051;-65
2022/01/17 11:36:46;;;;;;;8.93;4.30;;;;;;;;;;6294267;28;20053;-65
2022/01/17 11:39:50;;;;;;;8.25;3.35;;;;;;;;;;6293348;28;20045;-65
2022/01/17 11:42:59;;;;;;;6.85;4.03;;;;;;;;;;6294910;28;20037;-65
2022/01/17 11:46:22;;;;;;;6.43;3.40;;;;;;;;;;6294227;28;20083;-65
2022/01/17 11:49:28;;;;;;;5.97;3.38;;;;;;;;;;6295308;28;20049;-65
2022/01/17 11:52:36;;;;;;;6.38;3.60;;;;;;;;;;6293593;28;20072;-65
2022/01/17 11:55:45;;;;;;;8.10;4.38;;;;;;;;;;6295514;28;20178;-65
2022/01/17 11:58:49;;;;;;;7.15;3.70;;;;;;;;;;6294517;28;20600;-66
2022/01/17 12:02:09;;;;;;;8.38;4.38;;;;;;;;;;6293012;28;20053;-65
2022/01/17 12:05:31;;;;;;;7.88;3.70;;;;;;;;;;6293841;28;20456;-66
2022/01/17 12:08:36;;;;;;;11.05;4.47;;;;;;;;;;6293776;28;20048;-66
2022/01/17 12:11:41;;;;;;;6.90;4.07;;;;;;;;;;6294484;28;20072;-66
2022/01/17 12:14:53;;;;;;;7.72;3.97;;;;;;;;;;6294006;28;20048;-65
2022/01/17 12:18:17;;;;;;;6.22;3.75;;;;;;;;;;6293851;28;20081;-65
2022/01/17 12:21:23;;;;;;;8.45;3.70;;;;;;;;;;6294212;28;20040;-65
2022/01/17 12:24:32;;;;;;;12.27;4.05;;;;;;;;;;6294347;28;20087;-65
2022/01/17 12:27:35;;;;;;;5.97;3.55;;;;;;;;;;6293186;28;20044;-65
2022/01/17 12:30:41;;;;;;;7.13;4.05;;;;;;;;;;6293695;28;20072;-66
2022/01/17 12:33:44;;;;;;;10.75;3.83;;;;;;;;;;6294188;28;20044;-66
2022/01/17 12:36:47;;;;;;;8.05;3.72;;;;;;;;;;6292609;28;20068;-66
2022/01/17 12:39:52;;;;;;;8.52;4.07;;;;;;;;;;6291410;28;20052;-65
2022/01/17 12:42:57;;;;;;;5.35;3.35;;;;;;;;;;6292585;28;20044;-66
2022/01/17 12:46:02;;;;;;;16.88;8.55;;;;;;;;;;6291595;28;20483;-63
2022/01/17 12:49:08;;;;;;;7.72;4.30;;;;;;;;;;6292308;28;20227;-65
2022/01/17 12:52:11;;;;;;;12.70;4.10;;;;;;;;;;6292136;28;20123;-64
2022/01/17 12:55:16;;;;;;;8.60;4.30;;;;;;;;;;6292980;28;20051;-65
2022/01/17 12:58:22;;;;;;;7.43;4.05;;;;;;;;;;6291684;28;20048;-65
2022/01/17 13:01:27;;;;;;;14.35;4.07;;;;;;;;;;6291435;28;20072;-64
2022/01/17 13:04:31;;;;;;;10.30;4.20;;;;;;;;;;6293804;28;20055;-64
2022/01/17 13:07:34;;;;;;;6.78;4.20;;;;;;;;;;6293659;28;20036;-64
2022/01/17 13:10:39;;;;;;;7.90;4.00;;;;;;;;;;6291229;28;20044;-64
2022/01/17 13:13:44;;;;;;;6.63;3.92;;;;;;;;;;6293407;28;20091;-64
2022/01/17 13:16:51;;;;;;;7.55;3.75;;;;;;;;;;6293629;28;20049;-65
2022/01/17 13:19:54;;;;;;;8.35;3.80;;;;;;;;;;6293234;28;20076;-65
2022/01/17 13:23:01;;;;;;;5.97;3.75;;;;;;;;;;6292271;28;20060;-65
2022/01/17 13:26:09;;;;;;;8.60;4.18;;;;;;;;;;6293614;28;20050;-64
2022/01/17 13:29:12;;;;;;;7.63;3.80;;;;;;;;;;6292089;28;20498;-65
2022/01/17 13:32:15;;;;;;;6.57;4.07;;;;;;;;;;6290976;28;20052;-64
2022/01/17 13:35:22;;;;;;;10.10;4.03;;;;;;;;;;6291628;28;20048;-65
2022/01/17 13:38:33;;;;;;;9.10;3.95;;;;;;;;;;6292064;28;20049;-65
2022/01/17 13:41:39;;;;;;;7.25;3.97;;;;;;;;;;6291811;28;20042;-65
2022/01/17 13:44:42;;;;;;;6.78;3.88;;;;;;;;;;6292039;28;20079;-65
2022/01/17 13:47:53;;;;;;;6.55;3.53;;;;;;;;;;6293180;28;20047;-64
2022/01/17 13:50:58;;;;;;;7.70;3.70;;;;;;;;;;6293058;28;20068;-63
2022/01/17 13:54:03;;;;;;;6.57;3.65;;;;;;;;;;6290764;28;20056;-64
2022/01/17 13:57:13;;;;;;;7.70;3.78;;;;;;;;;;6292514;28;20064;-64
2022/01/17 14:00:37;;;;;;;7.38;3.70;;;;;;;;;;6292900;28;20045;-64
2022/01/17 14:03:41;;;;;;;6.85;3.75;;;;;;;;;;6293289;28;20110;-64
2022/01/17 14:06:47;;;;;;;6.22;3.60;;;;;;;;;;6290932;28;20048;-66
2022/01/17 14:09:50;;;;;;;6.38;3.80;;;;;;;;;;6292384;28;20102;-65
2022/01/17 14:12:55;;;;;;;5.90;3.67;;;;;;;;;;6292556;28;20506;-65
2022/01/17 14:16:11;;;;;;;7.65;4.35;;;;;;;;;;6292416;28;20072;-65
2022/01/17 14:19:16;;;;;;;6.18;3.75;;;;;;;;;;6290300;28;20115;-65
2022/01/17 14:22:21;;;;;;;11.18;3.67;;;;;;;;;;6292650;28;20051;-66
2022/01/17 14:25:25;;;;;;;8.32;3.25;;;;;;;;;;6290942;28;20056;-65
2022/01/17 14:28:31;;;;;;;13.48;3.65;;;;;;;;;;6289922;28;20040;-66
2022/01/17 14:31:37;;;;;;;6.35;3.30;;;;;;;;;;6294444;28;20048;-65
2022/01/17 14:34:44;;;;;;;6.13;3.75;;;;;;;;;;6296715;28;20040;-65
2022/01/17 14:37:47;;;;;;;9.52;5.07;;;;;;;;;;6294272;28;20036;-66
2022/01/17 14:40:52;;;;;;;6.05;3.67;;;;;;;;;;6295437;28;20045;-65
2022/01/17 14:43:56;;;;;;;10.85;4.00;;;;;;;;;;6295638;28;20041;-65
2022/01/17 14:47:15;;;;;;;5.55;3.42;;;;;;;;;;6297223;28;20052;-64
2022/01/17 14:50:18;;;;;;;5.72;3.90;;;;;;;;;;6295734;28;20135;-64
2022/01/17 14:53:26;;;;;;;9.45;3.30;;;;;;;;;;6294825;28;20406;-64
2022/01/17 14:59:58;;;;;;;5.90;3.38;;;;;;;;;;6295207;28;20506;-64
2022/01/17 15:03:02;;;;;;;7.57;3.65;;;;;;;;;;6294802;28;20502;-64
2022/01/17 15:06:06;;;;;;;8.40;3.70;;;;;;;;;;6295677;28;20055;-65
2022/01/17 15:09:09;;;;;;;19.63;4.60;;;;;;;;;;6296004;28;20114;-64
2022/01/17 15:12:12;;;;;;;7.55;3.38;;;;;;;;;;6295973;28;20581;-65
2022/01/17 15:15:16;;;;;;;6.75;3.40;;;;;;;;;;6293775;28;20072;-65
2022/01/17 15:18:19;;;;;;;9.27;3.35;;;;;;;;;;6296324;28;20044;-66
2022/01/17 15:21:22;;;;;;;5.15;3.25;;;;;;;;;;6297470;28;20093;-66
2022/01/17 15:24:25;;;;;;;6.22;3.20;;;;;;;;;;6293348;28;20521;-65
2022/01/17 15:27:28;;;;;;;8.73;4.00;;;;;;;;;;6295623;28;20051;-65
2022/01/17 15:30:34;;;;;;;7.32;3.88;;;;;;;;;;6294161;28;20072;-65
2022/01/17 15:33:44;;;;;;;6.10;3.40;;;;;;;;;;6295106;28;20044;-65
2022/01/17 15:36:47;;;;;;;5.57;3.15;;;;;;;;;;6294642;28;20072;-64
2022/01/17 15:39:50;;;;;;;8.00;3.58;;;;;;;;;;6293863;28;20423;-64
2022/01/17 15:42:53;;;;;;;6.45;3.58;;;;;;;;;;6293684;28;20099;-63
2022/01/17 15:45:57;;;;;;;6.50;3.33;;;;;;;;;;6294141;28;20056;-65
2022/01/17 15:49:01;;;;;;;6.38;3.40;;;;;;;;;;6293887;28;20033;-64
2022/01/17 15:52:06;;;;;;;6.88;3.45;;;;;;;;;;6295241;28;20507;-64
2022/01/17 15:55:10;;;;;;;5.63;3.38;;;;;;;;;;6292882;28;20466;-64
2022/01/17 15:58:15;;;;;;;4.50;2.90;;;;;;;;;;6294334;28;20041;-64
2022/01/17 16:01:22;;;;;;;20.17;4.40;;;;;;;;;;6293527;28;20036;-65
2022/01/17 16:04:27;;;;;;;6.38;3.22;;;;;;;;;;6295026;28;20049;-66
2022/01/17 16:07:31;;;;;;;6.07;3.25;;;;;;;;;;6292687;28;20048;-66
2022/01/17 16:10:35;;;;;;;6.65;3.28;;;;;;;;;;6294945;28;20333;-67
2022/01/17 16:13:39;;;;;;;6.03;3.42;;;;;;;;;;6294930;28;20049;-66
2022/01/17 16:16:44;;;;;;;8.57;3.35;;;;;;;;;;6293672;28;20043;-66
2022/01/17 16:19:48;;;;;;;5.20;3.20;;;;;;;;;;6294700;28;20049;-64
2022/01/17 16:22:51;;;;;;;7.05;3.97;;;;;;;;;;6293503;28;20139;-64
2022/01/17 16:25:54;;;;;;;7.15;4.03;;;;;;;;;;6292760;28;20067;-65
2022/01/17 16:28:57;;;;;;;7.28;3.60;;;;;;;;;;6292822;28;20048;-65
2022/01/17 16:32:04;;;;;;;9.18;3.88;;;;;;;;;;6293583;28;20068;-65
2022/01/17 16:35:08;;;;;;;5.35;3.15;;;;;;;;;;6292876;28;20048;-65
2022/01/17 16:38:12;;;;;;;5.20;3.38;;;;;;;;;;6292324;28;20079;-64
2022/01/17 16:41:17;;;;;;;7.88;3.30;;;;;;;;;;6293792;28;20048;-66
2022/01/17 16:44:20;;;;;;;6.40;3.38;;;;;;;;;;6293990;28;20068;-65
2022/01/17 16:47:24;;;;;;;5.35;3.22;;;;;;;;;;6292053;28;20170;-65
2022/01/17 16:50:27;;;;;;;6.45;3.35;;;;;;;;;;6291468;28;20075;-65
2022/01/17 16:53:30;;;;;;;7.30;3.97;;;;;;;;;;6292130;28;20097;-65
2022/01/17 16:56:34;;;;;;;5.47;3.22;;;;;;;;;;6292444;28;20109;-66
2022/01/17 16:59:37;;;;;;;6.50;3.20;;;;;;;;;;6292439;28;20052;-65
2022/01/17 17:02:44;;;;;;;10.32;4.55;;;;;;;;;;6292466;28;20085;-65
2022/01/17 17:05:47;;;;;;;9.73;4.45;;;;;;;;;;6292480;28;20049;-65
2022/01/17 17:08:50;;;;;;;11.50;5.18;;;;;;;;;;6292683;28;20044;-65
2022/01/17 17:11:53;;;;;;;5.88;3.22;;;;;;;;;;6292970;28;20045;-65
2022/01/17 17:14:56;;;;;;;4.53;1.58;;;;;;;;;;6292395;28;20048;-64
2022/01/17 17:18:06;;;;;;;4.00;1.50;;;;;;;;;;6292110;28;20178;-64
2022/01/17 17:21:11;;;;;;;2.00;1.30;;;;;;;;;;6290739;28;20122;-64
2022/01/17 17:24:14;;;;;;;4.63;2.10;;;;;;;;;;6291889;28;20225;-64
2022/01/17 17:27:20;;;;;;;;;;;;;;;;;;6293654;28;20068;-65
2022/01/17 17:30:25;;;;;;;3.50;1.60;;;;;;;;;;6291932;28;19921;-65
2022/01/17 17:33:30;;;;;;;1.63;0.83;;;;;;;;;;6292985;28;20106;-65
2022/01/17 17:36:33;;;;;;;1.70;1.10;;;;;;;;;;6293526;28;20918;-65
2022/01/17 17:39:36;;;;;;;1.65;0.93;;;;;;;;;;6293105;28;20083;-65
2022/01/17 17:42:39;;;;;;;0.80;0.80;;;;;;;;;;6292094;28;20052;-64
2022/01/17 17:45:42;;;;;;;2.00;1.10;;;;;;;;;;6292037;28;20518;-64
2022/01/17 17:48:46;;;;;;;4.10;1.30;;;;;;;;;;6293681;28;20392;-65
2022/01/17 17:51:51;;;;;;;3.30;1.42;;;;;;;;;;6292132;28;20067;-65
2022/01/17 17:54:54;;;;;;;2.13;1.40;;;;;;;;;;6291821;28;20564;-66
2022/01/17 17:57:57;;;;;;;1.45;1.10;;;;;;;;;;6293088;28;20068;-65
2022/01/17 18:01:01;;;;;;;1.20;0.93;;;;;;;;;;6291328;28;20491;-65
2022/01/17 18:04:06;;;;;;;3.53;1.02;;;;;;;;;;6290730;28;20495;-65
2022/01/17 18:07:11;;;;;;;1.90;0.90;;;;;;;;;;6296622;28;20106;-65
2022/01/17 18:10:17;;;;;;;7.90;3.58;;;;;;;;;;6296530;28;20087;-65
2022/01/17 18:13:20;;;;;;;1.45;1.02;;;;;;;;;;6296758;28;20423;-65
2022/01/17 18:16:23;;;;;;;3.28;0.90;;;;;;;;;;6297416;28;20514;-65
2022/01/17 18:19:30;;;;;;;2.38;0.82;;;;;;;;;;6297689;28;20468;-65
2022/01/17 18:22:33;;;;;;;2.40;1.52;;;;;;;;;;6296859;28;20048;-65
2022/01/17 18:25:36;;;;;;;1.45;0.93;;;;;;;;;;6296632;28;20057;-65
2022/01/17 18:28:39;;;;;;;1.80;1.20;;;;;;;;;;6297323;28;20068;-65
2022/01/17 18:31:42;;;;;;;5.10;1.20;;;;;;;;;;6297066;28;20052;-64
2022/01/17 18:34:46;;;;;;;2.35;1.00;;;;;;;;;;6295653;28;20098;-65
2022/01/17 18:37:51;;;;;;;2.30;0.75;;;;;;;;;;6297160;28;20055;-65
2022/01/17 18:40:54;;;;;;;2.10;1.10;;;;;;;;;;6296662;28;20084;-65